Atlanta, Georgia
Traffic Map
Current Weather Conditions
Atlanta, Georgia
Scattered Clouds
Scattered Clouds
11°
Feels Like: 11°
Wind Chill: 11° Ceiling: Unl
Heat Index: 11° Visibility: 10mi
Dew Point: -9° Wind: 15mph
Humidity: 23% Direction: 330° (NNW)
Pressure: 30.13in Gusts: 21mph
Raw Report DataKATL 282152Z 33013G18KT 10SM FEW150 SCT250 11/M09 A3013 RMK AO2 SLP205 T01111094
Traffic Incident Summary
Active as of:
Severity:
Category:
InformationThere was an issue retrieving the traffic information for this location. Please try a different location or try again shortly.
Advertisements
Track Severe Weather on mobile